createdAt,value
2022-09-20T00:00:00.313Z,0.045
2022-09-20T00:01:00.369Z,0.045
2022-09-20T00:02:00.561Z,0.045
2022-09-20T00:03:00.313Z,0.045
2022-09-20T00:04:00.288Z,0.045
2022-09-20T00:05:00.378Z,0.045
2022-09-20T00:06:00.308Z,0.045
2022-09-20T00:07:00.304Z,0.045
2022-09-20T00:08:00.452Z,0.045
2022-09-20T00:09:00.463Z,0.045
2022-09-20T00:10:00.304Z,0.045
2022-09-20T00:11:00.302Z,0.045
2022-09-20T00:12:00.324Z,0.045
2022-09-20T00:13:00.309Z,0.045
2022-09-20T00:14:00.508Z,0.045
2022-09-20T00:15:00.293Z,0.045
2022-09-20T00:16:00.303Z,0.045
2022-09-20T00:17:00.420Z,0.045
2022-09-20T00:18:00.304Z,0.045
2022-09-20T00:19:00.313Z,0.045
2022-09-20T00:20:00.452Z,0.045
2022-09-20T00:21:00.315Z,0.045
2022-09-20T00:22:00.315Z,0.045
2022-09-20T00:23:00.285Z,0.045
2022-09-20T00:24:00.346Z,0.045
2022-09-20T00:25:00.539Z,0.045
2022-09-20T00:26:00.415Z,0.045
2022-09-20T00:27:00.383Z,0.045
2022-09-20T00:28:00.326Z,0.045
2022-09-20T00:29:00.384Z,0.045
2022-09-20T00:30:00.295Z,0.135
2022-09-20T00:31:00.342Z,0.045
2022-09-20T00:32:00.544Z,0.045
2022-09-20T00:33:00.306Z,0.045
2022-09-20T00:34:00.318Z,0.045
2022-09-20T00:35:00.283Z,0.045
2022-09-20T00:36:00.322Z,0.045
2022-09-20T00:37:00.273Z,0.045
2022-09-20T00:38:00.671Z,0.045
2022-09-20T00:39:00.338Z,0.045
2022-09-20T00:40:00.436Z,0.045
2022-09-20T00:41:00.336Z,0.045
2022-09-20T00:42:00.311Z,0.045
2022-09-20T00:43:00.314Z,0.045
2022-09-20T00:44:00.542Z,0.045
2022-09-20T00:45:00.302Z,0.045
2022-09-20T00:46:00.327Z,0.045
2022-09-20T00:47:00.316Z,0.045
2022-09-20T00:48:00.299Z,0.045
2022-09-20T00:49:00.302Z,0.045
2022-09-20T00:50:00.458Z,0.045
2022-09-20T00:51:00.341Z,0.045
2022-09-20T00:52:00.316Z,0.045
2022-09-20T00:53:00.303Z,0.045
2022-09-20T00:54:00.305Z,0.045
2022-09-20T00:55:00.305Z,0.045
2022-09-20T00:56:00.474Z,0.045
2022-09-20T00:57:00.320Z,0.045
2022-09-20T00:58:00.298Z,0.045
2022-09-20T00:59:00.310Z,0.045
2022-09-20T01:00:00.317Z,0.045
2022-09-20T01:01:00.352Z,0.045
2022-09-20T01:02:00.538Z,0.045
2022-09-20T01:03:00.349Z,0.045
2022-09-20T01:04:00.391Z,0.045
2022-09-20T01:05:00.311Z,0.045
2022-09-20T01:06:00.295Z,0.045
2022-09-20T01:07:00.284Z,0.045
2022-09-20T01:08:00.441Z,0.045
2022-09-20T01:09:00.314Z,0.045
2022-09-20T01:10:00.311Z,0.045
2022-09-20T01:11:00.434Z,0.045
2022-09-20T01:12:00.307Z,0.045
2022-09-20T01:13:00.304Z,0.045
2022-09-20T01:14:00.527Z,0.045
2022-09-20T01:15:00.294Z,0.045
2022-09-20T01:16:00.300Z,0.045
2022-09-20T01:17:00.374Z,0.045
2022-09-20T01:18:00.299Z,0.045
2022-09-20T01:19:00.311Z,0.045
2022-09-20T01:20:00.428Z,0.045
2022-09-20T01:21:00.310Z,0.045
2022-09-20T01:22:00.293Z,0.045
2022-09-20T01:23:00.336Z,0.045
2022-09-20T01:24:00.348Z,0.045
2022-09-20T01:25:00.298Z,0.045
2022-09-20T01:26:00.516Z,0.045
2022-09-20T01:27:00.293Z,0.045
2022-09-20T01:28:00.313Z,0.045
2022-09-20T01:29:00.348Z,0.045
2022-09-20T01:30:00.309Z,0.045
2022-09-20T01:31:00.353Z,0.045
2022-09-20T01:32:00.517Z,0.045
2022-09-20T01:33:00.317Z,0.045
2022-09-20T01:34:00.298Z,0.045
2022-09-20T01:35:00.311Z,0.045
2022-09-20T01:36:00.318Z,0.045
2022-09-20T01:37:00.300Z,0.045
2022-09-20T01:38:00.431Z,0.045
2022-09-20T01:39:00.296Z,0.045
2022-09-20T01:40:00.398Z,0.045
2022-09-20T01:41:00.423Z,0.045
2022-09-20T01:42:00.337Z,0.045
2022-09-20T01:43:00.309Z,0.045
2022-09-20T01:44:00.598Z,0.045
2022-09-20T01:45:00.295Z,0.045
2022-09-20T01:46:00.374Z,0.045
2022-09-20T01:47:00.290Z,0.045
2022-09-20T01:48:00.298Z,0.045
2022-09-20T01:49:00.310Z,0.045
2022-09-20T01:50:00.483Z,0.045
2022-09-20T01:51:00.371Z,0.045
2022-09-20T01:52:00.314Z,0.045
2022-09-20T01:53:00.346Z,0.045
2022-09-20T01:54:00.304Z,0.045
2022-09-20T01:55:00.313Z,0.045
2022-09-20T01:56:00.567Z,0.045
2022-09-20T01:57:00.323Z,0.045
2022-09-20T01:58:00.347Z,0.045
2022-09-20T01:59:19.916Z,0.045
2022-09-20T02:00:00.364Z,0.045
2022-09-20T02:01:00.399Z,0.045
2022-09-20T02:02:00.535Z,0.045
2022-09-20T02:03:00.362Z,0.045
2022-09-20T02:04:00.381Z,0.045
2022-09-20T02:05:00.347Z,0.045
2022-09-20T02:06:00.336Z,0.045
2022-09-20T02:07:00.298Z,0.045
2022-09-20T02:08:00.626Z,0.045
2022-09-20T02:09:00.312Z,0.090
2022-09-20T02:10:00.323Z,0.090
2022-09-20T02:11:00.406Z,0.090
2022-09-20T02:12:00.322Z,0.135
2022-09-20T02:13:00.353Z,0.135
2022-09-20T02:14:00.518Z,0.180
2022-09-20T02:15:00.329Z,0.180
2022-09-20T02:16:00.305Z,0.180
2022-09-20T02:17:00.348Z,0.225
2022-09-20T02:18:00.317Z,0.270
2022-09-20T02:19:00.392Z,0.360
2022-09-20T02:20:00.464Z,0.450
2022-09-20T02:21:00.334Z,0.540
2022-09-20T02:22:00.313Z,0.630
2022-09-20T02:23:00.426Z,0.855
2022-09-20T02:24:00.297Z,1.080
2022-09-20T02:25:00.368Z,1.305
2022-09-20T02:26:00.496Z,1.620
2022-09-20T02:27:00.553Z,2.070
2022-09-20T02:28:00.331Z,2.610
2022-09-20T02:29:00.288Z,3.240
2022-09-20T02:30:00.285Z,4.005
2022-09-20T02:31:00.294Z,4.950
2022-09-20T02:32:00.523Z,6.165
2022-09-20T02:33:00.304Z,7.470
2022-09-20T02:34:00.306Z,9.045
2022-09-20T02:35:00.300Z,10.845
2022-09-20T02:36:00.318Z,12.960
2022-09-20T02:37:00.296Z,15.300
2022-09-20T02:38:00.479Z,17.910
2022-09-20T02:39:00.317Z,21.060
2022-09-20T02:40:00.399Z,24.300
2022-09-20T02:41:00.304Z,28.080
2022-09-20T02:42:00.340Z,32.400
2022-09-20T02:43:00.447Z,36.720
2022-09-20T02:44:00.558Z,41.580
2022-09-20T02:45:00.299Z,46.440
2022-09-20T02:46:00.387Z,51.840
2022-09-20T02:47:00.293Z,57.600
2022-09-20T02:48:00.316Z,64.080
2022-09-20T02:49:00.316Z,70.920
2022-09-20T02:50:00.474Z,78.120
2022-09-20T02:51:00.314Z,86.400
2022-09-20T02:52:00.291Z,95.040
2022-09-20T02:53:00.314Z,104.400
2022-09-20T02:54:00.331Z,115.200
2022-09-20T02:55:00.363Z,125.280
2022-09-20T02:56:00.514Z,136.080
2022-09-20T02:57:00.304Z,149.040
2022-09-20T02:58:00.361Z,161.280
2022-09-20T02:59:00.452Z,174.240
2022-09-20T03:00:00.327Z,187.200
2022-09-20T03:01:00.322Z,201.600
2022-09-20T03:02:00.513Z,216.000
2022-09-20T03:03:00.315Z,230.400
2022-09-20T03:04:00.350Z,246.240
2022-09-20T03:05:00.288Z,262.080
2022-09-20T03:06:00.304Z,282.240
2022-09-20T03:07:00.288Z,306.720
2022-09-20T03:08:03.001Z,329.760
2022-09-20T03:09:00.275Z,349.920
2022-09-20T03:10:00.291Z,371.520
2022-09-20T03:11:00.308Z,391.680
2022-09-20T03:12:00.327Z,414.720
2022-09-20T03:13:00.295Z,434.880
2022-09-20T03:14:00.491Z,460.800
2022-09-20T03:15:00.314Z,483.840
2022-09-20T03:16:00.302Z,506.880
2022-09-20T03:17:00.356Z,529.920
2022-09-20T03:18:00.290Z,552.960
2022-09-20T03:19:00.292Z,576.000
2022-09-20T03:20:00.461Z,601.920
2022-09-20T03:21:00.303Z,624.960
2022-09-20T03:22:00.275Z,653.760
2022-09-20T03:23:00.300Z,676.800
2022-09-20T03:24:00.293Z,699.840
2022-09-20T03:25:00.286Z,725.760
2022-09-20T03:26:00.458Z,748.800
2022-09-20T03:27:00.303Z,771.840
2022-09-20T03:28:00.309Z,794.880
2022-09-20T03:29:00.406Z,812.160
2022-09-20T03:30:00.314Z,829.440
2022-09-20T03:31:00.298Z,852.480
2022-09-20T03:32:00.491Z,864.000
2022-09-20T03:33:00.296Z,887.040
2022-09-20T03:34:00.350Z,892.800
2022-09-20T03:35:00.314Z,910.080
2022-09-20T03:36:00.303Z,927.360
2022-09-20T03:37:00.294Z,944.640
2022-09-20T03:38:00.506Z,961.920
2022-09-20T03:39:00.312Z,973.440
2022-09-20T03:40:00.445Z,990.720
2022-09-20T03:41:00.334Z,1002.240
2022-09-20T03:42:00.299Z,1008.000
2022-09-20T03:43:00.283Z,1088.640
2022-09-20T03:44:00.689Z,1094.400
2022-09-20T03:45:00.294Z,1117.440
2022-09-20T03:46:00.363Z,1134.720
2022-09-20T03:47:00.285Z,1146.240
2022-09-20T03:48:00.272Z,1157.760
2022-09-20T03:49:00.300Z,1175.040
2022-09-20T03:50:00.421Z,1186.560
2022-09-20T03:51:00.299Z,1198.080
2022-09-20T03:52:00.299Z,1221.120
2022-09-20T03:53:00.295Z,1238.400
2022-09-20T03:54:00.356Z,1261.440
2022-09-20T03:55:00.314Z,1278.720
2022-09-20T03:56:00.421Z,1301.760
2022-09-20T03:57:00.294Z,1330.560
2022-09-20T03:58:00.332Z,1347.840
2022-09-20T03:59:00.516Z,1376.640
2022-09-20T04:00:00.292Z,1393.920
2022-09-20T04:01:00.351Z,1422.720
2022-09-20T04:02:00.494Z,1445.760
2022-09-20T04:03:00.298Z,1474.560
2022-09-20T04:04:00.297Z,1497.600
2022-09-20T04:05:00.320Z,1520.640
2022-09-20T04:06:00.299Z,1532.160
2022-09-20T04:07:00.302Z,1555.200
2022-09-20T04:08:00.456Z,1578.240
2022-09-20T04:09:00.323Z,1589.760
2022-09-20T04:10:00.331Z,1612.800
2022-09-20T04:11:00.282Z,1612.800
2022-09-20T04:12:00.281Z,1635.840
2022-09-20T04:13:00.311Z,1647.360
2022-09-20T04:14:00.472Z,1670.400
2022-09-20T04:15:00.507Z,1681.920
2022-09-20T04:16:00.325Z,1693.440
2022-09-20T04:17:00.432Z,1704.960
2022-09-20T04:18:00.333Z,1728.000
2022-09-20T04:19:00.310Z,1739.520
2022-09-20T04:20:00.426Z,1751.040
2022-09-20T04:21:00.282Z,1774.080
2022-09-20T04:22:00.285Z,1785.600
2022-09-20T04:23:00.313Z,1797.120
2022-09-20T04:24:00.311Z,1808.640
2022-09-20T04:25:00.308Z,1820.160
2022-09-20T04:26:00.434Z,1820.160
2022-09-20T04:27:00.307Z,1843.200
2022-09-20T04:28:00.318Z,1854.720
2022-09-20T04:29:00.311Z,1866.240
2022-09-20T04:30:00.455Z,1877.760
2022-09-20T04:31:00.282Z,1889.280
2022-09-20T04:32:00.465Z,1889.280
2022-09-20T04:33:00.284Z,1900.800
2022-09-20T04:34:00.311Z,1912.320
2022-09-20T04:35:00.312Z,1923.840
2022-09-20T04:36:00.299Z,1935.360
2022-09-20T04:37:00.382Z,1946.880
2022-09-20T04:38:00.430Z,1958.400
2022-09-20T04:39:00.297Z,1969.920
2022-09-20T04:40:00.351Z,1992.960
2022-09-20T04:41:00.303Z,2004.480
2022-09-20T04:42:00.320Z,2016.000
2022-09-20T04:43:00.294Z,2039.040
2022-09-20T04:44:00.468Z,2062.080
2022-09-20T04:45:00.418Z,2085.120
2022-09-20T04:46:00.454Z,2096.640
2022-09-20T04:47:00.354Z,2108.160
2022-09-20T04:48:00.287Z,2119.680
2022-09-20T04:49:00.308Z,2131.200
2022-09-20T04:50:00.425Z,2154.240
2022-09-20T04:51:00.310Z,2177.280
2022-09-20T04:52:00.309Z,2211.840
2022-09-20T04:53:00.289Z,2246.400
2022-09-20T04:54:00.294Z,2280.960
2022-09-20T04:55:00.300Z,2327.040
2022-09-20T04:56:00.407Z,2361.600
2022-09-20T04:57:00.307Z,2419.200
2022-09-20T04:58:00.320Z,2534.400
2022-09-20T04:59:00.314Z,3939.840
2022-09-20T05:00:00.310Z,8110.080
2022-09-20T05:01:00.491Z,10275.840
2022-09-20T05:02:00.480Z,10460.160
2022-09-20T05:03:00.290Z,10598.400
2022-09-20T05:04:00.298Z,10690.560
2022-09-20T05:05:00.300Z,10782.720
2022-09-20T05:06:00.338Z,10920.960
2022-09-20T05:07:00.367Z,10967.040
2022-09-20T05:08:00.520Z,11013.120
2022-09-20T05:09:00.448Z,11105.280
2022-09-20T05:10:00.332Z,11151.360
2022-09-20T05:11:00.289Z,11243.520
2022-09-20T05:12:00.281Z,11335.680
2022-09-20T05:13:00.293Z,11427.840
2022-09-20T05:14:00.472Z,11473.920
2022-09-20T05:15:00.308Z,11520.000
2022-09-20T05:16:00.450Z,11612.160
2022-09-20T05:17:00.401Z,11612.160
2022-09-20T05:18:00.291Z,11612.160
2022-09-20T05:19:00.276Z,11704.320
2022-09-20T05:20:00.429Z,11796.480
2022-09-20T05:21:00.284Z,11888.640
2022-09-20T05:22:00.319Z,11980.800
2022-09-20T05:23:00.291Z,11980.800
2022-09-20T05:24:00.294Z,11980.800
2022-09-20T05:25:00.369Z,12072.960
2022-09-20T05:26:00.599Z,11658.240
2022-09-20T05:27:00.372Z,11520.000
2022-09-20T05:28:00.302Z,11750.400
2022-09-20T05:29:00.706Z,12165.120
2022-09-20T05:30:04.289Z,12441.600
2022-09-20T05:31:00.466Z,12441.600
2022-09-20T05:32:00.469Z,12625.920
2022-09-20T05:33:00.311Z,12533.760
2022-09-20T05:34:00.300Z,12165.120
2022-09-20T05:35:00.299Z,11796.480
2022-09-20T05:36:00.311Z,11980.800
2022-09-20T05:37:00.305Z,12718.080
2022-09-20T05:38:00.489Z,12994.560
2022-09-20T05:39:02.883Z,13086.720
2022-09-20T05:40:00.418Z,13086.720
2022-09-20T05:41:00.320Z,12902.400
2022-09-20T05:42:00.320Z,12441.600
2022-09-20T05:43:00.287Z,12533.760
2022-09-20T05:44:00.466Z,12994.560
2022-09-20T05:45:00.310Z,13363.200
2022-09-20T05:46:00.337Z,13363.200
2022-09-20T05:47:00.356Z,13363.200
2022-09-20T05:48:00.296Z,13455.360
2022-09-20T05:49:00.311Z,13547.520
2022-09-20T05:50:00.520Z,13639.680
2022-09-20T05:51:03.599Z,13547.520
2022-09-20T05:52:00.301Z,13639.680
2022-09-20T05:53:00.315Z,13731.840
2022-09-20T05:54:00.306Z,13824.000
2022-09-20T05:55:00.342Z,13916.160
2022-09-20T05:56:00.492Z,13916.160
2022-09-20T05:57:00.295Z,14008.320
2022-09-20T05:58:00.302Z,14008.320
2022-09-20T05:59:00.281Z,14008.320
2022-09-20T06:00:00.297Z,14192.640
2022-09-20T06:01:00.364Z,14192.640
2022-09-20T06:02:00.567Z,14284.800
2022-09-20T06:03:00.302Z,14376.960
2022-09-20T06:04:00.284Z,14376.960
2022-09-20T06:05:00.323Z,14469.120
2022-09-20T06:06:00.300Z,14469.120
2022-09-20T06:07:00.277Z,14469.120
2022-09-20T06:08:00.442Z,14561.280
2022-09-20T06:09:00.281Z,14653.440
2022-09-20T06:10:00.330Z,14653.440
2022-09-20T06:11:00.321Z,14745.600
2022-09-20T06:12:00.315Z,14929.920
2022-09-20T06:13:00.279Z,15022.080
2022-09-20T06:14:00.473Z,15022.080
2022-09-20T06:15:00.285Z,15022.080
2022-09-20T06:16:00.297Z,15114.240
2022-09-20T06:17:00.454Z,15114.240
2022-09-20T06:18:00.285Z,15206.400
2022-09-20T06:19:00.307Z,15206.400
2022-09-20T06:20:00.475Z,15206.400
2022-09-20T06:21:00.320Z,15298.560
2022-09-20T06:22:03.618Z,15298.560
2022-09-20T06:23:00.387Z,15390.720
2022-09-20T06:24:00.289Z,15482.880
2022-09-20T06:25:00.307Z,15575.040
2022-09-20T06:26:00.503Z,15667.200
2022-09-20T06:27:00.450Z,15759.360
2022-09-20T06:28:00.326Z,15667.200
2022-09-20T06:29:00.370Z,15851.520
2022-09-20T06:30:00.317Z,15851.520
2022-09-20T06:31:00.542Z,16035.840
2022-09-20T06:32:00.552Z,16035.840
2022-09-20T06:33:00.315Z,16128.000
2022-09-20T06:34:00.280Z,15759.360
2022-09-20T06:35:00.288Z,15851.520
2022-09-20T06:36:00.301Z,16220.160
2022-09-20T06:37:00.313Z,16404.480
2022-09-20T06:38:00.532Z,16496.641
2022-09-20T06:39:00.295Z,16404.480
2022-09-20T06:40:00.403Z,16404.480
2022-09-20T06:41:00.295Z,16496.641
2022-09-20T06:42:00.290Z,16588.801
2022-09-20T06:43:00.340Z,16680.961
2022-09-20T06:44:00.621Z,16680.961
2022-09-20T06:45:00.304Z,16865.279
2022-09-20T06:46:00.414Z,16773.119
2022-09-20T06:47:00.309Z,16957.439
2022-09-20T06:48:00.488Z,17049.600
2022-09-20T06:49:00.310Z,17049.600
2022-09-20T06:50:00.562Z,17141.760
2022-09-20T06:51:00.314Z,17233.920
2022-09-20T06:52:00.291Z,17326.080
2022-09-20T06:53:00.289Z,17326.080
2022-09-20T06:54:00.284Z,17233.920
2022-09-20T06:55:00.303Z,17326.080
2022-09-20T06:56:00.435Z,17418.240
2022-09-20T06:57:00.296Z,17510.400
2022-09-20T06:58:00.323Z,17602.561
2022-09-20T06:59:00.312Z,17510.400
2022-09-20T07:00:00.307Z,17694.721
2022-09-20T07:01:00.359Z,17694.721
2022-09-20T07:02:00.650Z,17786.881
2022-09-20T07:03:00.490Z,17879.039
2022-09-20T07:04:00.431Z,17879.039
2022-09-20T07:05:00.317Z,17786.881
2022-09-20T07:06:00.298Z,17971.199
2022-09-20T07:07:00.296Z,18063.359
2022-09-20T07:08:00.457Z,18155.520
2022-09-20T07:09:00.306Z,18247.680
2022-09-20T07:10:00.319Z,18339.840
2022-09-20T07:11:00.373Z,18339.840
2022-09-20T07:12:00.346Z,18339.840
2022-09-20T07:13:00.364Z,18524.160
2022-09-20T07:14:00.435Z,18432.000
2022-09-20T07:15:00.300Z,18524.160
2022-09-20T07:16:00.366Z,18524.160
2022-09-20T07:17:00.302Z,18616.320
2022-09-20T07:18:00.289Z,18708.480
2022-09-20T07:19:00.586Z,18708.480
2022-09-20T07:20:00.578Z,18616.320
2022-09-20T07:21:00.298Z,18800.641
2022-09-20T07:22:00.303Z,18708.480
2022-09-20T07:23:00.287Z,18800.641
2022-09-20T07:24:00.309Z,18800.641
2022-09-20T07:25:00.313Z,18892.801
2022-09-20T07:26:00.721Z,18984.961
2022-09-20T07:27:00.298Z,19077.119
2022-09-20T07:28:00.303Z,18984.961
2022-09-20T07:29:00.289Z,18984.961
2022-09-20T07:30:00.296Z,19261.439
2022-09-20T07:31:00.299Z,19353.600
2022-09-20T07:32:00.572Z,19353.600
2022-09-20T07:33:00.293Z,19261.439
2022-09-20T07:34:00.310Z,19261.439
2022-09-20T07:35:00.515Z,19445.760
2022-09-20T07:36:00.296Z,19630.080
2022-09-20T07:37:00.297Z,19722.240
2022-09-20T07:38:00.432Z,19722.240
2022-09-20T07:39:00.314Z,19630.080
2022-09-20T07:40:00.397Z,19722.240
2022-09-20T07:41:00.304Z,19814.400
2022-09-20T07:42:00.309Z,19814.400
2022-09-20T07:43:00.281Z,19906.561
2022-09-20T07:44:00.453Z,19814.400
2022-09-20T07:45:00.306Z,19722.240
2022-09-20T07:46:00.340Z,19814.400
2022-09-20T07:47:00.308Z,19814.400
2022-09-20T07:48:00.329Z,19814.400
2022-09-20T07:49:00.290Z,19722.240
2022-09-20T07:50:00.484Z,19998.721
2022-09-20T07:51:00.359Z,19906.561
2022-09-20T07:52:00.358Z,19814.400
2022-09-20T07:53:00.299Z,19906.561
2022-09-20T07:54:00.313Z,19998.721
2022-09-20T07:55:00.351Z,20183.039
2022-09-20T07:56:00.495Z,20090.881
2022-09-20T07:57:00.357Z,20367.359
2022-09-20T07:58:00.293Z,20367.359
2022-09-20T07:59:00.295Z,20367.359
2022-09-20T08:00:00.304Z,20367.359
2022-09-20T08:01:01.070Z,20459.520
2022-09-20T08:02:00.342Z,20551.680
2022-09-20T08:03:00.315Z,20736.000
2022-09-20T08:04:00.297Z,20736.000
2022-09-20T08:05:00.313Z,20920.320
2022-09-20T08:06:00.466Z,20551.680
2022-09-20T08:07:00.618Z,20551.680
2022-09-20T08:08:00.308Z,20736.000
2022-09-20T08:09:00.319Z,20828.160
2022-09-20T08:10:00.313Z,20736.000
2022-09-20T08:11:00.316Z,20828.160
2022-09-20T08:14:05.143Z,20828.160
2022-09-20T08:14:08.365Z,21012.480
2022-09-20T08:15:00.304Z,20828.160
2022-09-20T08:16:00.311Z,20920.320
2022-09-20T08:17:00.413Z,20920.320
2022-09-20T08:18:00.308Z,21104.641
2022-09-20T08:19:00.507Z,21104.641
2022-09-20T08:20:00.313Z,21196.801
2022-09-20T08:21:00.433Z,21196.801
2022-09-20T08:22:00.327Z,21381.119
2022-09-20T08:23:22.177Z,21381.119
2022-09-20T08:24:00.316Z,21381.119
2022-09-20T08:25:00.690Z,21381.119
2022-09-20T08:26:00.305Z,21473.279
2022-09-20T08:27:00.332Z,21473.279
2022-09-20T08:28:00.382Z,21565.439
2022-09-20T08:29:00.320Z,21565.439
2022-09-20T08:30:00.367Z,21473.279
2022-09-20T08:31:00.536Z,21381.119
2022-09-20T08:32:00.329Z,21473.279
2022-09-20T08:33:00.303Z,21473.279
2022-09-20T08:34:00.299Z,21381.119
2022-09-20T08:35:00.302Z,21473.279
2022-09-20T08:36:00.410Z,21473.279
2022-09-20T08:37:00.411Z,21657.600
2022-09-20T08:39:57.198Z,21749.760
2022-09-20T08:40:00.577Z,21657.600
2022-09-20T08:41:00.303Z,21565.439
2022-09-20T08:42:00.300Z,21565.439
2022-09-20T08:43:00.853Z,21565.439
2022-09-20T08:44:00.388Z,21657.600
2022-09-20T08:45:00.730Z,21657.600
2022-09-20T08:46:05.434Z,21749.760
2022-09-20T08:47:00.297Z,21841.920
2022-09-20T08:48:00.290Z,21749.760
2022-09-20T08:49:00.539Z,21934.080
2022-09-20T08:50:00.771Z,22026.240
2022-09-20T08:51:05.518Z,22026.240
2022-09-20T08:52:00.369Z,22118.400
2022-09-20T08:53:00.506Z,22118.400
2022-09-20T08:54:00.315Z,22210.561
2022-09-20T08:55:00.396Z,22118.400
2022-09-20T08:56:00.313Z,22026.240
2022-09-20T08:57:00.301Z,21934.080
2022-09-20T08:58:02.942Z,21841.920
2022-09-20T08:59:00.393Z,21841.920
2022-09-20T09:00:00.305Z,21934.080
2022-09-20T09:01:00.575Z,21934.080
2022-09-20T09:02:00.343Z,22026.240
2022-09-20T09:03:00.316Z,22118.400
2022-09-20T09:04:00.300Z,22118.400
2022-09-20T09:05:00.298Z,22026.240
2022-09-20T09:06:00.425Z,22026.240
2022-09-20T09:07:00.494Z,22026.240
2022-09-20T09:08:00.297Z,22026.240
2022-09-20T09:09:00.300Z,22118.400
2022-09-20T09:10:00.308Z,22210.561
2022-09-20T09:11:00.305Z,22210.561
2022-09-20T09:12:00.296Z,22210.561
2022-09-20T09:13:00.521Z,22118.400
2022-09-20T09:14:00.356Z,22118.400
2022-09-20T09:15:00.295Z,22118.400
2022-09-20T09:16:00.333Z,22026.240
2022-09-20T09:17:00.430Z,22026.240
2022-09-20T09:18:00.312Z,22118.400
2022-09-20T09:19:00.595Z,22210.561
2022-09-20T09:20:00.298Z,22302.721
2022-09-20T09:21:00.287Z,22302.721
2022-09-20T09:22:00.292Z,22302.721
2022-09-20T09:23:00.364Z,22026.240
2022-09-20T09:24:00.297Z,22026.240
2022-09-20T09:25:00.392Z,22026.240
2022-09-20T09:26:00.287Z,22026.240
2022-09-20T09:27:00.300Z,22026.240
2022-09-20T09:28:00.305Z,22026.240
2022-09-20T09:29:00.277Z,22026.240
2022-09-20T09:30:00.272Z,21934.080
2022-09-20T09:31:00.449Z,21841.920
2022-09-20T09:32:00.314Z,21934.080
2022-09-20T09:33:00.310Z,21841.920
2022-09-20T09:34:00.256Z,22026.240
2022-09-20T09:35:00.316Z,21934.080
2022-09-20T09:36:00.290Z,21934.080
2022-09-20T09:37:00.408Z,21841.920
2022-09-20T09:38:00.301Z,21749.760
2022-09-20T09:39:00.532Z,21657.600
2022-09-20T09:40:00.364Z,21657.600
2022-09-20T09:41:00.264Z,21657.600
2022-09-20T09:42:00.275Z,21657.600
2022-09-20T09:43:00.434Z,21565.439
2022-09-20T09:44:00.296Z,21473.279
2022-09-20T09:45:00.291Z,21381.119
2022-09-20T09:46:00.351Z,21288.961
2022-09-20T09:47:00.286Z,21196.801
2022-09-20T09:48:00.277Z,21104.641
2022-09-20T09:49:00.453Z,21104.641
2022-09-20T09:50:03.797Z,20920.320
2022-09-20T09:51:00.288Z,20920.320
2022-09-20T09:52:00.263Z,20828.160
2022-09-20T09:53:00.275Z,20828.160
2022-09-20T09:54:00.326Z,20828.160
2022-09-20T09:55:03.889Z,20920.320
2022-09-20T09:56:00.277Z,20736.000
2022-09-20T09:57:00.303Z,20643.840
2022-09-20T09:58:00.268Z,20459.520
2022-09-20T09:59:00.285Z,20275.199
2022-09-20T10:00:01.462Z,20090.881
2022-09-20T10:01:00.522Z,19998.721
2022-09-20T10:02:00.285Z,19906.561
2022-09-20T10:03:00.246Z,19722.240
2022-09-20T10:04:00.281Z,19537.920
2022-09-20T10:05:00.331Z,19261.439
2022-09-20T10:06:00.295Z,19077.119
2022-09-20T10:07:00.426Z,18708.480
2022-09-20T10:08:00.290Z,18432.000
2022-09-20T10:09:00.251Z,18063.359
2022-09-20T10:10:00.256Z,17602.561
2022-09-20T10:11:00.488Z,17326.080
2022-09-20T10:12:00.307Z,17049.600
2022-09-20T10:13:00.483Z,16680.961
2022-09-20T10:14:00.258Z,16220.160
2022-09-20T10:15:00.248Z,15851.520
2022-09-20T10:16:00.336Z,15482.880
2022-09-20T10:17:00.283Z,15022.080
2022-09-20T10:18:00.275Z,14469.120
2022-09-20T10:19:00.568Z,14100.480
2022-09-20T10:20:00.294Z,13639.680
2022-09-20T10:21:00.264Z,13178.880
2022-09-20T10:22:00.291Z,12718.080
2022-09-20T10:23:34.348Z,12257.280
2022-09-20T10:24:04.310Z,11888.640
2022-09-20T10:25:00.453Z,11473.920
2022-09-20T10:26:00.520Z,11105.280
2022-09-20T10:27:00.347Z,10644.480
2022-09-20T10:28:00.303Z,10229.760
2022-09-20T10:29:00.280Z,9815.040
2022-09-20T10:30:00.268Z,9446.400
2022-09-20T10:31:00.440Z,9031.680
2022-09-20T10:32:00.278Z,8616.960
2022-09-20T10:33:00.258Z,8202.240
2022-09-20T10:34:00.287Z,7787.520
2022-09-20T10:35:00.263Z,7418.880
2022-09-20T10:36:00.249Z,7004.160
2022-09-20T10:37:00.450Z,6589.440
2022-09-20T10:38:00.275Z,6220.800
2022-09-20T10:39:00.274Z,5875.200
2022-09-20T10:40:00.427Z,5345.280
2022-09-20T10:41:00.412Z,4469.760
2022-09-20T10:42:00.286Z,3962.880
2022-09-20T10:43:00.520Z,4170.240
2022-09-20T10:44:04.925Z,4239.360
2022-09-20T10:45:00.285Z,3985.920
2022-09-20T10:46:27.567Z,3778.560
2022-09-20T10:47:00.385Z,3571.200
2022-09-20T10:48:00.304Z,3409.920
2022-09-20T10:49:00.514Z,3248.640
2022-09-20T10:50:00.318Z,3156.480
2022-09-20T10:51:00.272Z,3087.360
2022-09-20T10:52:00.269Z,3041.280
2022-09-20T10:53:00.288Z,2972.160
2022-09-20T10:54:00.323Z,2926.080
2022-09-20T10:55:00.453Z,2903.040
2022-09-20T10:56:00.279Z,2891.520
2022-09-20T10:57:00.267Z,2891.520
2022-09-20T10:58:00.314Z,2891.520
2022-09-20T10:59:00.406Z,2868.480
2022-09-20T11:00:00.370Z,2880.000
2022-09-20T11:01:00.563Z,2868.480
2022-09-20T11:02:00.386Z,2845.440
2022-09-20T11:03:00.282Z,2833.920
2022-09-20T11:04:00.305Z,2810.880
2022-09-20T11:05:00.261Z,2822.400
2022-09-20T11:06:00.252Z,2810.880
2022-09-20T11:07:00.480Z,2787.840
2022-09-20T11:08:00.264Z,2787.840
2022-09-20T11:09:00.265Z,2741.760
2022-09-20T11:10:00.250Z,2741.760
2022-09-20T11:11:00.304Z,2741.760
2022-09-20T11:12:00.235Z,2730.240
2022-09-20T11:13:00.382Z,2695.680
2022-09-20T11:14:00.269Z,2707.200
2022-09-20T11:15:00.387Z,2649.600
2022-09-20T11:16:00.254Z,2649.600
2022-09-20T11:17:00.448Z,2684.160
2022-09-20T11:18:00.248Z,2626.560
2022-09-20T11:19:00.442Z,2649.600
2022-09-20T11:20:04.719Z,2638.080
2022-09-20T11:21:00.315Z,2557.440
2022-09-20T11:22:00.398Z,2603.520
2022-09-20T11:23:00.338Z,2592.000
2022-09-20T11:24:00.356Z,2557.440
2022-09-20T11:25:00.484Z,2557.440
2022-09-20T11:26:00.335Z,2488.320
2022-09-20T11:27:00.325Z,2476.800
2022-09-20T11:28:00.301Z,2499.840
2022-09-20T11:29:00.292Z,2442.240
2022-09-20T11:30:00.555Z,2465.280
2022-09-20T11:31:00.594Z,2407.680
2022-09-20T11:32:00.364Z,2430.720
2022-09-20T11:33:00.325Z,2419.200
2022-09-20T11:34:00.295Z,2396.160
2022-09-20T11:35:00.347Z,2350.080
2022-09-20T11:36:00.303Z,2373.120
2022-09-20T11:37:00.518Z,2338.560
2022-09-20T11:38:00.326Z,2338.560
2022-09-20T11:39:01.453Z,2304.000
2022-09-20T11:40:00.455Z,2292.480
2022-09-20T11:41:00.293Z,2257.920
2022-09-20T11:42:00.314Z,2304.000
2022-09-20T11:43:00.458Z,2280.960
2022-09-20T11:44:00.360Z,2315.520
2022-09-20T11:45:00.372Z,2280.960
2022-09-20T11:46:00.559Z,2292.480
2022-09-20T11:47:00.413Z,2280.960
2022-09-20T11:48:00.331Z,2269.440
2022-09-20T11:49:00.448Z,2269.440
2022-09-20T11:50:00.321Z,2280.960
2022-09-20T11:51:00.332Z,2269.440
2022-09-20T11:52:00.315Z,2234.880